Terminal Aerodrome Forecast
Issued by NWS Upton, NY

Home | Current Version | Previous Version | Text Only | Print | Product List | Glossary On
Versions: 1 2 3 4 5 6 7 8 9 10 11 12 13 14 15 16 17 18 19 20 21 22 23 24 25 26 27 28 29 30 31
000
FTUS41 KOKX 261742
TAFLGA
TAF
KLGA 261742Z 2618/2718 29014G22KT P6SM FEW060 FEW250
     FM262300 30010KT P6SM FEW250
     FM270200 35005KT P6SM FEW250
     FM271400 05005KT P6SM FEW200=

USA.gov is the U.S. government's official web portal to all federal, state and local government web resources and services.